PST,Max TemperatureF,Mean TemperatureF,Min TemperatureF,Max Dew PointF,MeanDew PointF,Min DewpointF,Max Humidity, Mean Humidity, Min Humidity, Max Sea Level PressureIn, Mean Sea Level PressureIn, Min Sea Level PressureIn, Max VisibilityMiles, Mean VisibilityMiles, Min VisibilityMiles, Max Wind SpeedMPH, Mean Wind SpeedMPH, Max Gust SpeedMPH,PrecipitationIn, CloudCover, Events, WindDirDegrees
2013-2-1,75,60,46,41,36,30,66,37,19,30.17,30.14,30.10,10,10,10,6,2,,0.00,2,,252
2013-2-2,73,60,48,45,38,32,71,41,22,30.22,30.17,30.12,10,10,10,4,0,,0.00,7,,300
2013-2-3,71,62,53,48,41,34,82,47,25,30.12,30.05,30.00,10,10,10,15,6,26,0.00,3,,341
2013-2-4,71,56,42,46,41,37,81,51,31,30.09,30.03,29.97,10,10,10,14,2,,0.00,0,,253
2013-2-5,57,52,46,48,47,43,93,80,67,30.09,30.03,29.97,4,4,3,12,6,,0.00,4,,237
2013-2-6,60,54,48,46,44,43,93,68,52,30.09,30.04,30.01,7,4,2,7,4,,0.00,3,,243
2013-2-7,62,52,41,46,43,37,93,72,48,30.12,30.06,29.99,7,4,0,15,3,,0.00,2,Fog,231
2013-2-8,44,40,37,37,36,34,93,84,66,29.98,29.92,29.89,10,7,1,13,5,,0.00,8,Rain,92
2013-2-9,51,42,32,36,33,30,93,67,47,30.07,30.03,29.98,10,10,10,7,1,,0.00,6,,58
2013-2-10,51,43,35,37,33,28,87,62,47,30.09,30.04,30.00,10,10,10,7,2,,0.00,5,,235
2013-2-11,57,46,35,34,15,7,93,27,13,30.16,30.12,30.08,10,10,10,23,10,30,0.00,1,,357
2013-2-12,60,48,37,36,25,19,60,35,20,30.33,30.27,30.21,10,10,10,9,2,,0.00,0,,218
2013-2-13,69,51,33,30,26,21,75,31,16,30.25,30.18,30.12,10,10,10,12,1,,0.00,0,,185
2013-2-14,73,55,37,37,28,19,81,34,15,30.18,30.12,30.07,10,10,10,14,3,,0.00,0,,33
2013-2-15,75,58,41,32,26,19,61,31,13,30.24,30.19,30.16,10,10,10,7,3,,0.00,2,,86
2013-2-16,78,58,39,30,22,12,56,23,9,30.20,30.08,30.00,10,10,10,6,0,,0.00,1,,205
2013-2-17,68,54,39,37,29,21,62,35,18,29.99,29.95,29.91,10,10,10,12,4,,0.00,0,,245
2013-2-18,62,52,42,43,40,37,93,68,42,30.07,30.01,29.93,7,3,1,7,1,,0.00,4,,237
2013-2-19,48,46,44,41,38,36,81,70,62,29.95,29.87,29.77,10,7,4,12,2,,0.00,8,Rain,183
2013-2-20,53,45,37,36,32,28,81,59,38,29.95,29.85,29.76,10,9,5,7,2,,0.00,5,Rain,213
2013-2-21,57,50,42,36,30,19,66,49,25,30.07,30.01,29.95,10,9,7,17,4,,0.00,4,,62
2013-2-22,62,48,35,37,31,23,71,46,23,30.19,30.15,30.12,10,10,10,6,1,,0.00,1,,249
2013-2-23,62,50,37,39,33,25,75,47,27,30.12,30.00,29.89,10,10,10,10,3,,0.00,1,,248
2013-2-24,60,56,44,16,4,0,31,13,9,30.16,30.10,30.06,10,10,10,25,20,40,0.00,0,,347
2013-2-25,66,50,35,21,17,12,52,23,14,30.22,30.14,30.07,10,10,10,13,2,,0.00,0,,240
2013-2-26,71,58,46,48,22,10,46,23,12,30.07,30.01,29.90,10,10,10,10,2,16,0.00,0,,302
2013-2-27,69,58,48,25,13,7,40,16,9,30.26,30.22,30.17,10,10,10,21,7,29,0.00,0,,339
2013-2-28,75,57,39,25,18,14,45,20,11,30.33,30.30,30.25,10,10,10,8,4,,0.00,0,,20